Time;durP1;ratioP1;P1;durP2;ratioP2;P2;SDS_P1;SDS_P2;PMS_P1;PMS_P2;Temp;Humidity;BMP_temperature;BMP_pressure;BME280_temperature;BME280_humidity;BME280_pressure;Samples;Min_cycle;Max_cycle;Signal;HPM_P1;HPM_P2
2024/04/13 00:00:53;;;;;;;11.10;5.03;;;9.90;66.40;;;;;;5404974;26;20451;-64
2024/04/13 00:03:18;;;;;;;7.00;4.70;;;9.90;66.80;;;;;;5404763;26;20717;-63
2024/04/13 00:05:44;;;;;;;16.10;4.90;;;9.80;66.90;;;;;;5407735;26;21107;-63
2024/04/13 00:08:10;;;;;;;9.20;4.87;;;9.80;67.10;;;;;;5404608;26;20329;-64
2024/04/13 00:10:36;;;;;;;12.03;5.30;;;9.80;67.20;;;;;;5410855;26;20622;-63
2024/04/13 00:13:01;;;;;;;7.20;5.00;;;9.80;67.50;;;;;;5402317;26;20349;-63
2024/04/13 00:15:27;;;;;;;8.00;5.10;;;9.70;67.50;;;;;;5401254;26;20451;-63
2024/04/13 00:17:54;;;;;;;6.60;4.67;;;9.70;67.70;;;;;;5409547;26;20615;-63
2024/04/13 00:20:20;;;;;;;8.33;4.70;;;9.60;67.90;;;;;;5397642;26;20595;-63
2024/04/13 00:22:47;;;;;;;6.20;4.30;;;9.60;68.30;;;;;;5409407;26;20806;-63
2024/04/13 00:25:13;;;;;;;9.17;4.90;;;9.60;68.50;;;;;;5410405;26;20501;-63
2024/04/13 00:27:40;;;;;;;15.80;5.53;;;9.60;68.70;;;;;;5404707;26;20909;-63
2024/04/13 00:30:07;;;;;;;8.53;5.30;;;9.50;68.90;;;;;;5403722;26;20514;-64
2024/04/13 00:32:32;;;;;;;10.30;5.30;;;9.50;69.20;;;;;;5400605;26;20535;-64
2024/04/13 00:34:58;;;;;;;6.77;5.13;;;9.40;69.30;;;;;;5410588;26;20473;-63
2024/04/13 00:37:25;;;;;;;11.93;4.67;;;9.40;69.80;;;;;;5424730;26;20328;-62
2024/04/13 00:39:51;;;;;;;12.13;5.23;;;9.30;70.10;;;;;;5408793;26;20280;-64
2024/04/13 00:42:16;;;;;;;7.83;4.60;;;9.30;70.40;;;;;;5410212;26;20454;-63
2024/04/13 00:44:42;;;;;;;13.07;5.20;;;9.30;70.70;;;;;;5407893;26;20838;-63
2024/04/13 00:47:09;;;;;;;8.07;5.40;;;9.20;71.10;;;;;;5408030;26;20224;-63
2024/04/13 00:49:37;;;;;;;6.30;4.83;;;9.20;71.50;;;;;;5405057;26;20233;-64
2024/04/13 00:52:11;;;;;;;8.50;5.50;;;9.10;72.00;;;;;;5408341;26;20533;-63
2024/04/13 00:54:38;;;;;;;9.30;5.03;;;9.10;72.50;;;;;;5395576;26;20530;-63
2024/04/13 00:57:07;;;;;;;7.27;5.00;;;9.10;72.90;;;;;;5405709;26;20463;-63
2024/04/13 00:59:34;;;;;;;8.60;5.90;;;9.10;73.50;;;;;;5405033;26;20517;-63
2024/04/13 01:02:02;;;;;;;11.93;6.07;;;9.00;74.50;;;;;;5409067;26;20454;-63
2024/04/13 01:04:28;;;;;;;8.63;5.23;;;9.00;74.30;;;;;;5409299;26;20499;-63
2024/04/13 01:06:54;;;;;;;8.27;6.10;;;9.00;74.40;;;;;;5402919;26;20500;-62
2024/04/13 01:09:22;;;;;;;7.90;5.17;;;9.00;74.70;;;;;;5404228;26;20621;-63
2024/04/13 01:11:48;;;;;;;8.33;5.33;;;9.00;75.20;;;;;;5401025;26;20466;-63
2024/04/13 01:14:14;;;;;;;6.70;5.10;;;9.00;75.50;;;;;;5407892;26;20976;-63
2024/04/13 01:16:40;;;;;;;6.13;4.53;;;9.00;75.70;;;;;;5408264;26;20533;-63
2024/04/13 01:19:07;;;;;;;13.53;5.80;;;8.90;76.10;;;;;;5409151;26;20514;-64
2024/04/13 01:21:33;;;;;;;12.97;5.10;;;8.90;76.70;;;;;;5406284;26;20281;-64
2024/04/13 01:24:05;;;;;;;7.83;5.23;;;8.90;76.80;;;;;;5406883;26;20770;-62
2024/04/13 01:26:38;;;;;;;6.17;5.00;;;8.90;76.80;;;;;;5406079;26;20511;-62
2024/04/13 01:29:07;;;;;;;6.60;5.00;;;8.90;76.20;;;;;;5414081;26;20837;-63
2024/04/13 01:31:40;;;;;;;7.73;5.80;;;8.90;75.80;;;;;;5400822;26;20466;-63
2024/04/13 01:34:06;;;;;;;7.13;4.80;;;8.80;75.20;;;;;;5410060;26;20446;-62
2024/04/13 01:36:40;;;;;;;6.93;4.53;;;8.80;75.40;;;;;;5409179;26;20977;-63
2024/04/13 01:39:11;;;;;;;10.30;5.30;;;8.70;76.00;;;;;;5402137;26;20707;-63
2024/04/13 01:41:46;;;;;;;6.70;4.60;;;8.70;76.20;;;;;;5407361;26;20514;-63
2024/04/13 01:44:11;;;;;;;8.00;5.37;;;8.70;76.50;;;;;;5427084;26;20818;-64
2024/04/13 01:46:37;;;;;;;7.40;5.07;;;8.60;77.00;;;;;;5405661;26;20522;-63
2024/04/13 01:49:04;;;;;;;7.10;4.53;;;8.50;77.70;;;;;;5403844;26;20236;-63
2024/04/13 01:51:36;;;;;;;6.43;5.13;;;8.50;78.70;;;;;;5399764;26;20586;-64
2024/04/13 01:54:03;;;;;;;11.93;5.13;;;8.50;79.90;;;;;;5416120;26;20521;-63
2024/04/13 01:56:29;;;;;;;10.30;5.27;;;8.40;80.90;;;;;;5399217;26;20522;-63
2024/04/13 01:58:55;;;;;;;7.83;5.47;;;8.40;81.90;;;;;;5406382;26;20525;-64
2024/04/13 02:01:20;;;;;;;10.33;5.63;;;8.40;82.20;;;;;;5399401;26;20324;-63
2024/04/13 02:03:47;;;;;;;7.23;5.17;;;8.40;83.30;;;;;;5404248;26;20220;-64
2024/04/13 02:06:13;;;;;;;11.43;6.00;;;8.40;83.40;;;;;;5408896;26;20271;-63
2024/04/13 02:08:38;;;;;;;9.53;5.50;;;8.40;83.60;;;;;;5404585;26;20455;-64
2024/04/13 02:11:06;;;;;;;7.13;5.50;;;8.30;84.10;;;;;;5401891;26;20263;-64
2024/04/13 02:13:33;;;;;;;12.43;5.00;;;8.40;84.40;;;;;;5401909;26;20230;-62
2024/04/13 02:15:59;;;;;;;6.97;5.40;;;8.30;84.20;;;;;;5399327;26;21063;-63
2024/04/13 02:18:25;;;;;;;8.53;4.60;;;8.30;84.60;;;;;;5400878;26;20817;-62
2024/04/13 02:20:50;;;;;;;6.87;4.90;;;8.20;85.70;;;;;;5405904;26;20450;-63
2024/04/13 02:23:16;;;;;;;6.80;5.40;;;8.20;86.10;;;;;;5404205;26;20821;-63
2024/04/13 02:25:45;;;;;;;8.00;5.10;;;8.20;86.50;;;;;;5402670;26;20772;-62
2024/04/13 02:28:11;;;;;;;8.60;4.70;;;8.10;86.80;;;;;;5401738;26;20232;-64
2024/04/13 02:30:37;;;;;;;7.53;5.43;;;8.10;87.00;;;;;;5406556;26;20521;-62
2024/04/13 02:33:03;;;;;;;8.13;4.97;;;8.10;87.30;;;;;;5407750;26;20524;-63
2024/04/13 02:35:29;;;;;;;7.30;4.77;;;8.00;87.50;;;;;;5400096;26;20914;-64
2024/04/13 02:37:55;;;;;;;6.17;5.20;;;8.00;87.30;;;;;;5407169;26;20270;-63
2024/04/13 02:40:23;;;;;;;10.90;5.77;;;8.00;88.10;;;;;;5405858;26;21393;-62
2024/04/13 02:42:53;;;;;;;8.57;5.73;;;7.90;88.70;;;;;;5406050;26;20555;-62
2024/04/13 02:45:18;;;;;;;9.80;4.97;;;7.90;89.10;;;;;;5401172;26;20471;-63
2024/04/13 02:47:48;;;;;;;12.97;5.30;;;7.90;89.60;;;;;;5403525;26;20572;-63
2024/04/13 02:50:15;;;;;;;7.93;5.80;;;7.90;90.30;;;;;;5406602;26;20410;-63
2024/04/13 02:52:41;;;;;;;11.70;5.70;;;7.80;90.20;;;;;;5403356;26;20554;-62
2024/04/13 02:55:08;;;;;;;7.70;5.30;;;7.90;90.40;;;;;;5402948;26;20511;-63
2024/04/13 02:57:34;;;;;;;9.90;5.40;;;7.90;90.60;;;;;;5405685;26;20454;-64
2024/04/13 03:00:00;;;;;;;10.30;5.60;;;7.90;90.70;;;;;;5407502;26;20487;-63
2024/04/13 03:02:26;;;;;;;16.07;5.60;;;7.80;90.60;;;;;;5407961;26;20291;-62
2024/04/13 03:04:51;;;;;;;7.53;5.10;;;7.80;90.40;;;;;;5404026;26;20338;-64
2024/04/13 03:07:17;;;;;;;8.40;5.83;;;7.80;90.40;;;;;;5400037;26;20338;-63
2024/04/13 03:09:44;;;;;;;6.80;5.70;;;7.80;90.50;;;;;;5400211;26;20285;-63
2024/04/13 03:12:10;;;;;;;7.83;4.80;;;7.80;90.30;;;;;;5404085;26;20455;-63
2024/04/13 03:14:36;;;;;;;9.00;5.80;;;7.80;90.10;;;;;;5406233;26;20458;-63
2024/04/13 03:17:02;;;;;;;8.27;4.90;;;7.80;90.60;;;;;;5404771;26;20451;-63
2024/04/13 03:19:29;;;;;;;7.27;5.50;;;7.80;91.20;;;;;;5403197;26;20495;-62
2024/04/13 03:21:54;;;;;;;9.00;5.90;;;7.70;91.80;;;;;;5404419;26;20455;-64
2024/04/13 03:24:20;;;;;;;10.73;5.40;;;7.70;92.20;;;;;;5405813;26;20454;-62
2024/04/13 03:26:46;;;;;;;6.50;4.93;;;7.70;92.40;;;;;;5400637;26;20696;-63
2024/04/13 03:29:12;;;;;;;13.97;5.40;;;7.70;92.30;;;;;;5399518;26;20236;-63
2024/04/13 03:31:38;;;;;;;9.80;5.40;;;7.60;92.70;;;;;;5406134;26;21000;-63
2024/04/13 03:34:04;;;;;;;9.40;6.20;;;7.60;93.00;;;;;;5403191;26;20458;-63
2024/04/13 03:36:31;;;;;;;10.43;6.30;;;7.60;93.20;;;;;;5402852;26;20462;-62
2024/04/13 03:38:56;;;;;;;11.80;7.03;;;7.60;93.70;;;;;;5402652;26;20454;-63
2024/04/13 03:41:22;;;;;;;12.13;6.33;;;7.60;94.50;;;;;;5408112;26;20857;-64
2024/04/13 03:43:47;;;;;;;9.57;6.30;;;7.50;94.70;;;;;;5400005;26;20234;-63
2024/04/13 03:46:13;;;;;;;16.00;6.07;;;7.60;94.80;;;;;;5406202;26;20217;-63
2024/04/13 03:48:41;;;;;;;12.43;5.57;;;7.50;95.10;;;;;;5405566;26;20805;-63
2024/04/13 03:51:11;;;;;;;7.97;6.10;;;7.60;95.10;;;;;;5400985;26;20233;-63
2024/04/13 03:53:37;;;;;;;10.80;6.43;;;7.60;94.70;;;;;;5406251;26;20454;-64
2024/04/13 03:56:03;;;;;;;6.43;5.50;;;7.60;94.60;;;;;;5404355;26;20575;-63
2024/04/13 03:58:29;;;;;;;7.30;5.20;;;7.50;93.70;;;;;;5402913;26;20470;-62
2024/04/13 04:00:55;;;;;;;12.27;6.00;;;7.50;93.20;;;;;;5398305;26;20528;-63
2024/04/13 04:03:22;;;;;;;7.60;5.30;;;7.50;93.60;;;;;;5402783;26;20462;-64
2024/04/13 04:05:48;;;;;;;6.53;5.23;;;7.50;93.50;;;;;;5404016;26;20292;-63
2024/04/13 04:08:14;;;;;;;9.97;6.17;;;7.50;93.70;;;;;;5394792;26;20515;-63
2024/04/13 04:10:40;;;;;;;9.07;5.50;;;7.40;93.60;;;;;;5404640;26;20458;-63
2024/04/13 04:13:06;;;;;;;10.70;5.50;;;7.40;94.40;;;;;;5403129;26;20279;-64
2024/04/13 04:15:32;;;;;;;5.97;5.27;;;7.40;95.10;;;;;;5403134;26;21241;-63
2024/04/13 04:17:59;;;;;;;12.53;5.57;;;7.30;95.40;;;;;;5402711;26;21055;-63
2024/04/13 04:20:25;;;;;;;8.00;6.23;;;7.30;95.50;;;;;;5405861;26;20474;-61
2024/04/13 04:22:51;;;;;;;9.80;5.47;;;7.30;95.50;;;;;;5376316;26;20559;-60
2024/04/13 04:25:21;;;;;;;8.10;5.43;;;7.30;95.70;;;;;;5408089;26;20507;-61
2024/04/13 04:27:46;;;;;;;9.60;5.87;;;7.30;95.50;;;;;;5402230;26;20458;-64
2024/04/13 04:30:15;;;;;;;8.67;6.10;;;7.30;95.00;;;;;;5402948;26;21110;-66
2024/04/13 04:32:42;;;;;;;9.97;6.87;;;7.30;94.70;;;;;;5405724;26;20338;-67
2024/04/13 04:35:08;;;;;;;10.43;6.77;;;7.20;94.60;;;;;;5403312;26;20461;-64
2024/04/13 04:37:34;;;;;;;10.67;6.97;;;7.20;94.80;;;;;;5405926;26;21204;-65
2024/04/13 04:40:00;;;;;;;9.53;6.20;;;7.10;95.60;;;;;;5395654;26;20245;-65
2024/04/13 04:42:28;;;;;;;9.63;6.70;;;7.20;96.00;;;;;;5425719;26;20573;-64
2024/04/13 04:44:57;;;;;;;10.80;6.40;;;7.10;96.00;;;;;;5406024;26;21249;-64
2024/04/13 04:47:22;;;;;;;15.57;6.40;;;7.10;96.60;;;;;;5408220;26;20503;-64
2024/04/13 04:49:48;;;;;;;12.60;6.80;;;7.10;97.50;;;;;;5408580;26;21011;-66
2024/04/13 04:52:14;;;;;;;13.03;6.50;;;7.20;97.70;;;;;;5407298;26;20259;-65
2024/04/13 04:54:41;;;;;;;8.33;6.40;;;7.10;97.10;;;;;;5408168;26;20217;-66
2024/04/13 04:57:06;;;;;;;8.40;6.07;;;7.20;96.80;;;;;;5409546;26;20573;-65
2024/04/13 04:59:32;;;;;;;11.10;6.40;;;7.10;96.40;;;;;;5399720;26;20474;-61
2024/04/13 05:01:58;;;;;;;7.80;5.90;;;7.00;97.10;;;;;;5408097;26;20698;-64
2024/04/13 05:04:27;;;;;;;11.30;6.77;;;7.00;97.40;;;;;;5402149;26;20233;-65
2024/04/13 05:06:54;;;;;;;14.80;6.63;;;7.00;97.60;;;;;;5406429;26;20229;-63
2024/04/13 05:09:19;;;;;;;9.80;6.13;;;7.00;97.40;;;;;;5402599;26;20533;-64
2024/04/13 05:11:45;;;;;;;16.10;6.90;;;7.00;97.40;;;;;;5409159;26;20459;-65
2024/04/13 05:14:12;;;;;;;11.60;6.57;;;7.00;97.60;;;;;;5410571;26;20267;-64
2024/04/13 05:16:38;;;;;;;7.83;6.00;;;7.00;97.70;;;;;;5407397;26;20229;-63
2024/04/13 05:19:03;;;;;;;10.63;7.00;;;7.10;97.90;;;;;;5405595;26;20927;-64
2024/04/13 05:21:30;;;;;;;10.40;7.23;;;7.00;97.70;;;;;;5405039;26;20250;-65
2024/04/13 05:23:56;;;;;;;11.10;7.00;;;7.00;99.20;;;;;;5405242;26;20233;-65
2024/04/13 05:26:21;;;;;;;11.47;6.87;;;7.00;99.80;;;;;;5407158;26;20576;-65
2024/04/13 05:28:47;;;;;;;10.37;7.50;;;7.10;99.90;;;;;;5409303;26;20228;-65
2024/04/13 05:31:13;;;;;;;9.90;6.30;;;7.10;99.90;;;;;;5406733;26;20273;-65
2024/04/13 05:33:39;;;;;;;9.60;6.47;;;7.20;99.90;;;;;;5406810;26;20341;-64
2024/04/13 05:36:05;;;;;;;14.73;8.33;;;7.20;99.60;;;;;;5425031;26;20225;-64
2024/04/13 05:38:31;;;;;;;11.23;7.60;;;7.30;99.90;;;;;;5396700;26;20511;-64
2024/04/13 05:40:56;;;;;;;10.97;6.77;;;7.30;99.90;;;;;;5404272;26;20849;-64
2024/04/13 05:43:22;;;;;;;9.73;5.87;;;7.40;99.90;;;;;;5400870;26;20236;-65
2024/04/13 05:45:49;;;;;;;7.90;6.50;;;7.40;99.60;;;;;;5408678;26;20260;-64
2024/04/13 05:48:14;;;;;;;15.43;7.10;;;7.50;99.50;;;;;;5409451;26;20650;-65
2024/04/13 05:50:40;;;;;;;12.90;6.67;;;7.60;99.10;;;;;;5407282;26;20467;-65
2024/04/13 05:53:06;;;;;;;9.73;6.20;;;7.70;98.80;;;;;;5408038;26;20221;-65
2024/04/13 05:55:35;;;;;;;9.57;6.83;;;7.80;98.20;;;;;;5409305;26;21053;-65
2024/04/13 05:58:00;;;;;;;10.53;6.57;;;7.90;97.50;;;;;;5404295;26;20296;-65
2024/04/13 06:00:26;;;;;;;13.60;6.83;;;8.00;97.00;;;;;;5403021;26;20467;-63
2024/04/13 06:02:51;;;;;;;8.53;6.27;;;8.20;96.60;;;;;;5403426;26;20234;-64
2024/04/13 06:05:17;;;;;;;13.70;6.90;;;8.40;94.80;;;;;;5393544;26;20342;-65
2024/04/13 06:07:43;;;;;;;8.13;6.27;;;8.60;92.10;;;;;;5402899;26;20264;-64
2024/04/13 06:10:09;;;;;;;10.73;7.20;;;8.60;89.60;;;;;;5406157;26;20229;-65
2024/04/13 06:12:34;;;;;;;9.37;7.03;;;8.70;90.00;;;;;;5409242;26;20220;-64
2024/04/13 06:15:00;;;;;;;11.57;7.80;;;8.70;90.00;;;;;;5398941;26;20328;-65
2024/04/13 06:17:26;;;;;;;9.53;6.73;;;8.80;90.00;;;;;;5406186;26;20329;-64
2024/04/13 06:19:52;;;;;;;10.30;7.40;;;8.80;89.90;;;;;;5402590;26;20240;-65
2024/04/13 06:22:23;;;;;;;10.80;7.17;;;8.80;89.00;;;;;;5401103;26;20580;-65
2024/04/13 06:24:52;;;;;;;16.67;8.27;;;8.90;89.20;;;;;;5406248;26;20286;-64
2024/04/13 06:27:19;;;;;;;14.80;7.70;;;9.00;89.60;;;;;;5398796;26;20462;-66
2024/04/13 06:29:50;;;;;;;13.50;7.50;;;9.10;89.20;;;;;;5402200;26;20988;-65
2024/04/13 06:32:17;;;;;;;11.20;7.77;;;9.20;88.20;;;;;;5409681;26;20458;-65
2024/04/13 06:34:42;;;;;;;23.03;7.57;;;9.30;88.10;;;;;;5406143;26;20571;-64
2024/04/13 06:37:08;;;;;;;17.93;8.57;;;9.30;87.80;;;;;;5405683;26;20470;-63
2024/04/13 06:39:34;;;;;;;17.17;9.40;;;9.40;87.20;;;;;;5407072;26;20213;-65
2024/04/13 06:42:00;;;;;;;14.20;9.10;;;9.50;88.40;;;;;;5409598;26;20288;-65
2024/04/13 06:44:26;;;;;;;16.20;9.00;;;9.60;87.40;;;;;;5403858;26;20244;-65
2024/04/13 06:46:51;;;;;;;11.60;7.97;;;9.70;90.20;;;;;;5392192;26;20522;-65
2024/04/13 06:49:20;;;;;;;9.63;6.63;;;9.80;88.50;;;;;;5401825;26;20236;-64
2024/04/13 06:51:46;;;;;;;11.90;7.17;;;9.80;85.20;;;;;;5403510;26;20232;-63
2024/04/13 06:54:12;;;;;;;11.83;6.63;;;9.90;84.30;;;;;;5405738;26;20474;-65
2024/04/13 06:56:37;;;;;;;17.50;7.30;;;10.00;84.00;;;;;;5405891;26;20312;-65
2024/04/13 06:59:03;;;;;;;15.80;6.63;;;10.00;83.40;;;;;;5408809;26;20217;-65
2024/04/13 07:01:29;;;;;;;7.00;5.77;;;10.10;83.40;;;;;;5405932;26;20228;-64
2024/04/13 07:03:56;;;;;;;8.63;6.37;;;10.20;84.50;;;;;;5405942;26;20229;-64
2024/04/13 07:06:23;;;;;;;13.80;6.37;;;10.30;83.60;;;;;;5401704;26;20514;-65
2024/04/13 07:08:49;;;;;;;9.60;5.80;;;10.50;81.50;;;;;;5430384;26;21059;-65
2024/04/13 07:11:15;;;;;;;9.50;6.03;;;10.50;81.50;;;;;;5398163;26;20511;-65
2024/04/13 07:13:41;;;;;;;15.57;6.27;;;10.60;81.70;;;;;;5408085;26;20542;-64
2024/04/13 07:16:07;;;;;;;11.70;7.13;;;10.70;80.50;;;;;;5408672;26;20492;-64
2024/04/13 07:18:33;;;;;;;10.83;6.20;;;10.80;80.10;;;;;;5399377;26;20456;-65
2024/04/13 07:21:00;;;;;;;12.47;7.23;;;10.90;79.90;;;;;;5408577;26;20450;-66
2024/04/13 07:23:26;;;;;;;15.00;6.87;;;11.10;79.90;;;;;;5406194;26;20279;-65
2024/04/13 07:26:01;;;;;;;11.73;6.43;;;11.20;79.40;;;;;;5405231;26;21075;-65
2024/04/13 07:28:28;;;;;;;13.33;6.73;;;11.40;79.20;;;;;;5394662;26;20260;-64
2024/04/13 07:30:54;;;;;;;11.67;7.50;;;11.50;77.70;;;;;;5428955;26;20486;-65
2024/04/13 07:33:20;;;;;;;15.33;7.90;;;11.60;77.30;;;;;;5408811;26;20841;-65
2024/04/13 07:35:46;;;;;;;13.13;7.27;;;11.80;76.80;;;;;;5405912;26;21119;-64
2024/04/13 07:38:11;;;;;;;8.90;6.50;;;12.00;76.00;;;;;;5406247;26;20846;-64
2024/04/13 07:40:37;;;;;;;8.17;6.80;;;12.10;76.10;;;;;;5401281;26;20230;-65
2024/04/13 07:43:04;;;;;;;12.70;6.60;;;12.20;75.00;;;;;;5400534;26;20620;-65
2024/04/13 07:45:29;;;;;;;15.23;6.83;;;12.30;73.90;;;;;;5407675;26;20446;-65
2024/04/13 07:47:55;;;;;;;12.50;7.13;;;12.40;73.00;;;;;;5406517;26;20447;-65
2024/04/13 07:50:22;;;;;;;14.63;7.40;;;12.50;72.30;;;;;;5406296;26;20341;-65
2024/04/13 07:52:48;;;;;;;12.37;7.43;;;12.60;72.40;;;;;;5401903;26;20229;-65
2024/04/13 07:55:13;;;;;;;13.43;9.20;;;12.70;71.90;;;;;;5407108;26;20531;-65
2024/04/13 07:57:39;;;;;;;12.90;7.87;;;12.80;71.50;;;;;;5392667;26;20237;-65
2024/04/13 08:00:06;;;;;;;17.90;8.60;;;13.00;71.50;;;;;;5400831;26;20366;-65
2024/04/13 08:02:31;;;;;;;18.63;9.70;;;13.10;71.40;;;;;;5405341;26;20271;-64
2024/04/13 08:04:57;;;;;;;14.33;8.70;;;13.20;71.30;;;;;;5404429;26;20470;-65
2024/04/13 08:07:23;;;;;;;19.63;10.30;;;13.40;70.90;;;;;;5400116;26;20318;-65
2024/04/13 08:09:48;;;;;;;16.70;9.90;;;13.50;70.30;;;;;;5397017;26;20225;-65
2024/04/13 08:12:14;;;;;;;20.20;11.13;;;13.70;70.20;;;;;;5402065;26;20322;-66
2024/04/13 08:14:40;;;;;;;19.63;11.10;;;13.80;69.70;;;;;;5405679;26;20250;-66
2024/04/13 08:17:07;;;;;;;20.53;9.70;;;14.00;68.60;;;;;;5401765;26;20466;-65
2024/04/13 08:19:32;;;;;;;19.60;10.53;;;14.10;67.80;;;;;;5403931;26;20228;-67
2024/04/13 08:21:58;;;;;;;23.83;10.10;;;14.30;67.30;;;;;;5406371;26;20522;-67
2024/04/13 08:24:24;;;;;;;17.00;9.47;;;14.40;66.50;;;;;;5411621;26;20337;-67
2024/04/13 08:26:50;;;;;;;14.80;8.40;;;14.60;66.10;;;;;;5408116;26;20275;-68
2024/04/13 08:29:16;;;;;;;10.07;6.93;;;14.70;65.60;;;;;;5409488;26;20228;-67
2024/04/13 08:31:42;;;;;;;14.20;7.83;;;14.90;65.00;;;;;;5403761;26;20520;-67
2024/04/13 08:34:07;;;;;;;14.70;7.97;;;15.00;64.50;;;;;;5402690;26;20310;-67
2024/04/13 08:36:33;;;;;;;18.23;7.33;;;15.20;64.60;;;;;;5408388;26;20221;-67
2024/04/13 08:38:58;;;;;;;16.20;7.13;;;15.40;64.90;;;;;;5396537;26;20864;-65
2024/04/13 08:41:43;;;;;;;16.67;6.67;;;15.60;64.70;;;;;;5395861;26;20271;-65
2024/04/13 08:44:08;;;;;;;10.63;6.47;;;15.70;63.80;;;;;;5405837;26;20232;-65
2024/04/13 08:46:35;;;;;;;11.67;6.20;;;15.80;63.10;;;;;;5405024;26;20543;-64
2024/04/13 08:49:02;;;;;;;13.80;5.30;;;16.00;63.00;;;;;;5432821;26;20224;-63
2024/04/13 08:51:30;;;;;;;7.50;4.70;;;16.10;62.50;;;;;;5405226;26;20733;-64
2024/04/13 08:54:00;;;;;;;8.60;4.77;;;16.30;61.50;;;;;;5404193;26;20510;-65
2024/04/13 08:56:26;;;;;;;8.30;5.07;;;16.40;60.80;;;;;;5409242;26;20922;-66
2024/04/13 08:58:54;;;;;;;10.60;4.27;;;16.60;60.90;;;;;;5408443;26;20497;-66
2024/04/13 09:01:26;;;;;;;6.97;3.40;;;16.80;60.70;;;;;;5405434;26;20591;-65
2024/04/13 09:03:53;;;;;;;5.30;3.40;;;17.00;60.00;;;;;;5405825;26;20545;-65
2024/04/13 09:06:19;;;;;;;10.10;3.20;;;17.20;59.40;;;;;;5408205;26;20514;-65
2024/04/13 09:08:49;;;;;;;4.30;2.97;;;17.30;58.50;;;;;;5407149;26;20454;-65
2024/04/13 09:11:15;;;;;;;5.47;2.97;;;17.50;58.10;;;;;;5402577;26;21016;-65
2024/04/13 09:13:43;;;;;;;4.80;3.20;;;17.70;57.00;;;;;;5403863;26;20550;-66
2024/04/13 09:16:09;;;;;;;5.63;3.43;;;17.90;56.90;;;;;;5424703;26;20229;-66
2024/04/13 09:18:35;;;;;;;10.83;4.10;;;18.10;57.90;;;;;;5403765;26;20905;-66
2024/04/13 09:21:02;;;;;;;7.00;2.63;;;18.20;57.90;;;;;;5397263;26;20549;-66
2024/04/13 09:23:29;;;;;;;3.60;2.90;;;18.30;57.70;;;;;;5392272;26;20789;-64
2024/04/13 09:26:04;;;;;;;2.97;2.20;;;18.50;57.10;;;;;;5406608;26;20530;-66
2024/04/13 09:28:40;;;;;;;7.80;2.77;;;18.60;55.50;;;;;;5404327;26;20457;-65
2024/04/13 09:31:06;;;;;;;3.27;2.57;;;18.70;54.30;;;;;;5396536;26;20450;-66
2024/04/13 09:33:32;;;;;;;2.80;2.60;;;18.80;54.00;;;;;;5407163;26;20446;-65
2024/04/13 09:35:58;;;;;;;3.33;2.90;;;18.90;54.10;;;;;;5401198;26;20848;-66
2024/04/13 09:38:24;;;;;;;7.00;2.67;;;19.10;54.10;;;;;;5405193;26;20521;-66
2024/04/13 09:40:59;;;;;;;6.17;2.73;;;19.30;53.30;;;;;;5408206;26;20572;-66
2024/04/13 09:43:25;;;;;;;6.77;2.43;;;19.50;53.00;;;;;;5399967;26;20287;-66
2024/04/13 09:45:58;;;;;;;7.60;2.87;;;19.70;52.80;;;;;;5402704;26;20471;-65
2024/04/13 09:48:24;;;;;;;8.20;4.47;;;19.80;52.40;;;;;;5396435;26;20233;-65
2024/04/13 09:50:50;;;;;;;7.73;3.80;;;20.00;52.40;;;;;;5407508;26;21098;-66
2024/04/13 09:53:17;;;;;;;7.07;3.80;;;20.10;52.50;;;;;;5408873;26;20280;-65
2024/04/13 09:55:44;;;;;;;7.00;3.83;;;20.20;50.30;;;;;;5409289;26;20918;-66
2024/04/13 09:58:12;;;;;;;13.77;7.07;;;20.30;50.00;;;;;;5400953;26;21047;-66
2024/04/13 10:00:40;;;;;;;11.80;6.30;;;20.30;50.70;;;;;;5408444;26;20532;-66
2024/04/13 10:03:06;;;;;;;12.90;6.60;;;20.40;51.30;;;;;;5409663;26;20491;-66
2024/04/13 10:05:35;;;;;;;12.57;6.60;;;20.50;51.20;;;;;;5397179;26;20457;-66
2024/04/13 10:08:03;;;;;;;13.97;4.97;;;20.60;51.30;;;;;;5403002;26;20310;-66
2024/04/13 10:10:29;;;;;;;8.17;4.40;;;20.80;51.80;;;;;;5407374;26;20999;-64
2024/04/13 10:12:56;;;;;;;5.93;3.40;;;21.00;51.20;;;;;;5408257;26;20543;-66
2024/04/13 10:15:22;;;;;;;7.80;4.57;;;21.10;50.90;;;;;;5406185;26;20451;-66
2024/04/13 10:17:49;;;;;;;10.50;4.20;;;21.30;50.30;;;;;;5403439;26;20637;-63
2024/04/13 10:20:15;;;;;;;6.87;4.37;;;21.40;50.10;;;;;;5409251;26;20511;-66
2024/04/13 10:22:50;;;;;;;5.90;4.30;;;21.50;49.60;;;;;;5402973;26;20459;-66
2024/04/13 10:25:16;;;;;;;10.13;3.87;;;21.50;48.90;;;;;;5408657;26;20389;-66
2024/04/13 10:27:42;;;;;;;5.50;3.03;;;21.60;48.50;;;;;;5395073;26;20493;-66
2024/04/13 10:30:07;;;;;;;4.83;2.80;;;21.60;48.40;;;;;;5408027;26;20213;-66
2024/04/13 10:32:33;;;;;;;5.10;2.27;;;21.70;48.10;;;;;;5406726;26;20659;-66
2024/04/13 10:35:09;;;;;;;7.17;2.27;;;21.70;48.50;;;;;;5409444;26;20232;-66
2024/04/13 10:37:36;;;;;;;6.70;2.23;;;21.70;48.00;;;;;;5407484;26;20283;-66
2024/04/13 10:40:04;;;;;;;6.23;3.00;;;21.80;48.10;;;;;;5406181;26;20573;-66
2024/04/13 10:42:40;;;;;;;3.83;2.80;;;21.90;48.10;;;;;;5405554;26;20443;-64
2024/04/13 10:45:16;;;;;;;4.40;2.70;;;22.00;46.60;;;;;;5399052;26;20451;-64
2024/04/13 10:47:43;;;;;;;6.77;2.90;;;22.00;46.20;;;;;;5404043;26;20635;-67
2024/04/13 10:50:13;;;;;;;7.13;3.47;;;22.00;47.10;;;;;;5404220;26;20519;-65
2024/04/13 10:52:39;;;;;;;7.30;3.17;;;22.10;47.90;;;;;;5407852;26;21122;-64
2024/04/13 10:55:05;;;;;;;8.60;3.40;;;22.10;48.50;;;;;;5400454;26;20450;-65
2024/04/13 10:57:31;;;;;;;4.83;3.20;;;22.20;48.60;;;;;;5407239;26;20577;-64
2024/04/13 10:59:57;;;;;;;9.17;3.60;;;22.30;47.80;;;;;;5407383;26;20225;-64
2024/04/13 11:02:22;;;;;;;6.67;3.10;;;22.40;46.70;;;;;;5405152;26;21017;-63
2024/04/13 11:04:49;;;;;;;4.67;3.10;;;22.40;46.90;;;;;;5405797;26;20240;-65
2024/04/13 11:07:15;;;;;;;6.77;3.40;;;22.50;47.70;;;;;;5401404;26;20233;-65
2024/04/13 11:09:42;;;;;;;5.30;3.50;;;22.50;47.60;;;;;;5400349;26;20459;-65
2024/04/13 11:12:12;;;;;;;6.30;3.50;;;22.60;47.60;;;;;;5406540;26;20464;-65
2024/04/13 11:14:38;;;;;;;8.30;3.20;;;22.60;47.70;;;;;;5376973;26;20475;-65
2024/04/13 11:17:05;;;;;;;5.03;3.23;;;22.60;47.60;;;;;;5395115;26;20867;-59
2024/04/13 11:19:31;;;;;;;6.30;2.27;;;22.70;47.40;;;;;;5401934;26;20588;-59
2024/04/13 11:21:58;;;;;;;3.73;1.80;;;22.90;47.50;;;;;;5406849;26;20450;-59
2024/04/13 11:24:25;;;;;;;4.27;2.00;;;22.90;43.40;;;;;;5395409;26;21216;-59
2024/04/13 11:26:51;;;;;;;4.30;2.30;;;22.90;42.70;;;;;;5395654;26;20522;-59
2024/04/13 11:29:19;;;;;;;4.20;2.70;;;22.90;42.20;;;;;;5404887;26;20454;-58
2024/04/13 11:31:45;;;;;;;2.40;2.13;;;22.80;41.30;;;;;;5397131;26;20233;-59
2024/04/13 11:34:11;;;;;;;3.77;2.30;;;22.80;42.50;;;;;;5407436;26;20530;-59
2024/04/13 11:36:36;;;;;;;5.30;2.60;;;22.80;42.80;;;;;;5404627;26;20455;-59
2024/04/13 11:39:02;;;;;;;3.43;2.87;;;22.90;41.60;;;;;;5395917;26;20447;-59
2024/04/13 11:41:31;;;;;;;4.30;3.10;;;22.90;42.50;;;;;;5403884;26;20615;-60
2024/04/13 11:43:57;;;;;;;7.93;2.43;;;23.00;43.20;;;;;;5402339;26;20617;-62
2024/04/13 11:46:23;;;;;;;3.63;2.30;;;23.20;43.40;;;;;;5403506;26;20504;-62
2024/04/13 11:48:53;;;;;;;5.47;2.60;;;23.20;42.80;;;;;;5404352;26;20528;-62
2024/04/13 11:51:23;;;;;;;4.93;2.30;;;23.10;42.60;;;;;;5392755;26;20473;-62
2024/04/13 11:53:49;;;;;;;2.40;2.20;;;23.30;42.90;;;;;;5404315;26;20482;-63
2024/04/13 11:56:15;;;;;;;8.50;2.50;;;23.40;43.00;;;;;;5401350;26;20463;-62
2024/04/13 11:58:48;;;;;;;3.30;2.13;;;23.40;42.10;;;;;;5394895;26;20237;-62
2024/04/13 12:01:14;;;;;;;4.30;2.13;;;23.40;41.40;;;;;;5396620;26;20228;-63
2024/04/13 12:03:39;;;;;;;2.20;2.00;;;23.40;41.50;;;;;;5401607;26;20474;-61
2024/04/13 12:06:06;;;;;;;6.80;2.23;;;23.40;41.70;;;;;;5403131;26;20451;-62
2024/04/13 12:08:32;;;;;;;3.50;1.77;;;23.40;41.10;;;;;;5401858;26;20266;-63
2024/04/13 12:10:57;;;;;;;2.80;2.30;;;23.50;39.80;;;;;;5403325;26;20503;-62
2024/04/13 12:13:24;;;;;;;7.80;2.20;;;23.60;40.00;;;;;;5403072;26;20463;-62
2024/04/13 12:15:49;;;;;;;2.97;2.20;;;23.80;40.30;;;;;;5406951;26;20742;-62
2024/04/13 12:18:15;;;;;;;3.27;2.57;;;23.90;40.30;;;;;;5406678;26;20442;-62
2024/04/13 12:20:41;;;;;;;2.47;2.17;;;24.00;40.50;;;;;;5405647;26;20237;-62
2024/04/13 12:23:06;;;;;;;3.57;2.10;;;24.00;39.30;;;;;;5402833;26;20233;-62
2024/04/13 12:25:33;;;;;;;2.10;1.90;;;24.00;39.70;;;;;;5403394;26;20232;-62
2024/04/13 12:27:59;;;;;;;3.40;2.30;;;24.00;40.50;;;;;;5401194;26;20625;-62
2024/04/13 12:30:25;;;;;;;7.57;2.17;;;24.20;40.10;;;;;;5411806;26;20973;-61
2024/04/13 12:32:51;;;;;;;2.60;2.00;;;24.20;39.10;;;;;;5398803;26;20244;-61
2024/04/13 12:35:20;;;;;;;5.10;2.20;;;24.30;39.20;;;;;;5399183;26;20450;-61
2024/04/13 12:37:46;;;;;;;11.20;2.17;;;24.40;39.70;;;;;;5394106;26;20229;-61
2024/04/13 12:40:14;;;;;;;4.83;2.00;;;24.70;40.70;;;;;;5400841;26;20449;-62
2024/04/13 12:42:40;;;;;;;1.83;1.73;;;24.90;39.30;;;;;;5405198;26;20568;-61
2024/04/13 12:45:05;;;;;;;3.70;2.57;;;25.10;39.10;;;;;;5400600;26;20987;-62